TimeCST,TemperatureF,Dew PointF,Humidity,Sea Level PressureIn,VisibilityMPH,Wind Direction,Wind SpeedMPH,Gust SpeedMPH,PrecipitationIn,Events,Conditions,WindDirDegrees,DateUTC
12:54 AM,-16.1,-22.0,74,30.40,10.0,SSW,9.2,-,N/A,,Clear,210,2013-12-08 06:54:00
1:54 AM,-18.0,-23.1,78,30.37,10.0,SSW,5.8,-,N/A,,Clear,210,2013-12-08 07:54:00
2:54 AM,-17.0,-23.1,74,30.35,10.0,SSW,8.1,-,N/A,,Clear,200,2013-12-08 08:54:00
3:54 AM,-17.0,-23.1,74,30.32,10.0,South,8.1,-,N/A,,Clear,190,2013-12-08 09:54:00
4:54 AM,-18.9,-24.0,78,30.28,10.0,South,6.9,-,N/A,,Clear,170,2013-12-08 10:54:00
5:54 AM,-17.0,-23.1,74,30.26,10.0,South,5.8,-,N/A,,Clear,190,2013-12-08 11:54:00
6:54 AM,-16.1,-22.0,74,30.24,10.0,SSW,8.1,-,N/A,,Clear,200,2013-12-08 12:54:00
7:54 AM,-14.1,-20.0,75,30.22,10.0,SSW,8.1,-,N/A,,Mostly Cloudy,200,2013-12-08 13:54:00
8:54 AM,-9.0,-18.0,65,30.19,10.0,South,11.5,-,N/A,,Overcast,180,2013-12-08 14:54:00
9:54 AM,-8.0,-16.1,68,30.18,10.0,SSW,11.5,-,N/A,,Mostly Cloudy,200,2013-12-08 15:54:00
10:54 AM,-7.1,-15.0,68,30.17,10.0,SSW,13.8,-,N/A,,Clear,200,2013-12-08 16:54:00
11:54 AM,-5.1,-15.0,62,30.14,10.0,SSW,15.0,-,N/A,,Partly Cloudy,200,2013-12-08 17:54:00
12:54 PM,-4.0,-14.1,62,30.12,10.0,South,12.7,-,N/A,,Clear,190,2013-12-08 18:54:00
1:54 PM,-2.9,-14.1,59,30.10,10.0,SW,11.5,-,N/A,,Clear,230,2013-12-08 19:54:00
2:54 PM,-4.0,-15.0,59,30.09,10.0,WSW,11.5,21.9,N/A,,Partly Cloudy,240,2013-12-08 20:54:00
3:54 PM,-5.1,-15.0,62,30.11,10.0,WSW,11.5,-,N/A,,Clear,250,2013-12-08 21:54:00
4:54 PM,-6.0,-16.1,62,30.12,10.0,WSW,9.2,-,N/A,,Clear,240,2013-12-08 22:54:00
5:54 PM,-7.1,-16.1,65,30.13,10.0,WSW,9.2,-,N/A,,Clear,240,2013-12-08 23:54:00
6:54 PM,-7.1,-15.0,68,30.14,10.0,West,9.2,-,N/A,,Mostly Cloudy,260,2013-12-09 00:54:00
7:54 PM,-6.0,-14.1,68,30.15,10.0,WNW,18.4,-,N/A,,Mostly Cloudy,290,2013-12-09 01:54:00
8:09 PM,-6.0,-14.1,68,29.99,10.0,West,18.4,-,N/A,,Overcast,280,2013-12-09 02:09:00
8:24 PM,-6.0,-13.0,72,29.99,10.0,West,17.3,-,N/A,,Overcast,280,2013-12-09 02:24:00
8:47 PM,-6.0,-14.1,68,29.99,10.0,WNW,16.1,-,N/A,,Mostly Cloudy,290,2013-12-09 02:47:00
8:54 PM,-6.0,-14.1,68,30.16,10.0,WNW,16.1,-,N/A,,Mostly Cloudy,290,2013-12-09 02:54:00
9:21 PM,-7.1,-14.1,72,30.00,10.0,WNW,21.9,-,N/A,,Overcast,290,2013-12-09 03:21:00
9:27 PM,-7.1,-14.1,72,30.00,10.0,WNW,20.7,29.9,N/A,,Overcast,290,2013-12-09 03:27:00
9:54 PM,-8.0,-15.0,71,30.17,7.0,West,23.0,29.9,0.00,,Mostly Cloudy,280,2013-12-09 03:54:00
10:54 PM,-8.0,-14.1,75,30.17,4.0,West,20.7,-,0.00,,Haze,280,2013-12-09 04:54:00
11:35 PM,-8.0,-15.0,71,30.01,9.0,West,18.4,27.6,N/A,,Mostly Cloudy,280,2013-12-09 05:35:00
11:42 PM,-8.0,-15.0,71,30.01,9.0,West,18.4,-,N/A,,Scattered Clouds,280,2013-12-09 05:42:00
11:54 PM,-9.0,-15.0,75,30.18,10.0,West,16.1,-,N/A,,Partly Cloudy,280,2013-12-09 05:54:00